sensor_id;sensor_type;location;lat;lon;timestamp;pressure;altitude;pressure_sealevel;temperature
64904;BMP280;51401;48.882;12.598;2023-05-08T00:01:15;94198.59;;;13.37
64904;BMP280;51401;48.882;12.598;2023-05-08T00:03:41;94251.78;;;13.42
64904;BMP280;51401;48.882;12.598;2023-05-08T00:06:06;94274.72;;;13.32
64904;BMP280;51401;48.882;12.598;2023-05-08T00:08:32;94262.19;;;13.26
64904;BMP280;51401;48.882;12.598;2023-05-08T00:10:57;94194.06;;;13.16
64904;BMP280;51401;48.882;12.598;2023-05-08T00:13:22;94114.91;;;13.12
64904;BMP280;51401;48.882;12.598;2023-05-08T00:15:48;94059.13;;;13.02
64904;BMP280;51401;48.882;12.598;2023-05-08T00:18:14;94001.94;;;12.97
64904;BMP280;51401;48.882;12.598;2023-05-08T00:20:39;93975.75;;;12.89
64904;BMP280;51401;48.882;12.598;2023-05-08T00:23:05;93914.09;;;12.79
64904;BMP280;51401;48.882;12.598;2023-05-08T00:25:31;93862.19;;;12.73
64904;BMP280;51401;48.882;12.598;2023-05-08T00:27:57;93767.00;;;12.65
64904;BMP280;51401;48.882;12.598;2023-05-08T00:30:22;93772.47;;;12.62
64904;BMP280;51401;48.882;12.598;2023-05-08T00:32:47;93739.91;;;12.50
64904;BMP280;51401;48.882;12.598;2023-05-08T00:35:12;93716.53;;;12.50
64904;BMP280;51401;48.882;12.598;2023-05-08T00:37:38;93729.53;;;12.44
64904;BMP280;51401;48.882;12.598;2023-05-08T00:40:06;93662.75;;;12.39
64904;BMP280;51401;48.882;12.598;2023-05-08T00:42:32;93580.69;;;12.26
64904;BMP280;51401;48.882;12.598;2023-05-08T00:44:57;93557.34;;;12.26
64904;BMP280;51401;48.882;12.598;2023-05-08T00:47:23;93545.34;;;12.23
64904;BMP280;51401;48.882;12.598;2023-05-08T00:49:48;93505.97;;;12.19
64904;BMP280;51401;48.882;12.598;2023-05-08T00:52:14;93298.25;;;12.01
64904;BMP280;51401;48.882;12.598;2023-05-08T00:54:40;93216.88;;;12.04
64904;BMP280;51401;48.882;12.598;2023-05-08T00:57:06;93162.59;;;12.06
64904;BMP280;51401;48.882;12.598;2023-05-08T00:59:32;93147.44;;;11.91
64904;BMP280;51401;48.882;12.598;2023-05-08T01:01:59;93132.72;;;11.99
64904;BMP280;51401;48.882;12.598;2023-05-08T01:04:25;93198.72;;;12.04
64904;BMP280;51401;48.882;12.598;2023-05-08T01:06:50;93227.78;;;11.97
64904;BMP280;51401;48.882;12.598;2023-05-08T01:09:16;93208.78;;;11.89
64904;BMP280;51401;48.882;12.598;2023-05-08T01:12:06;93146.63;;;11.78
64904;BMP280;51401;48.882;12.598;2023-05-08T01:17:44;92976.25;;;11.73
64904;BMP280;51401;48.882;12.598;2023-05-08T01:23:51;93037.00;;;11.59
64904;BMP280;51401;48.882;12.598;2023-05-08T01:32:55;92917.63;;;11.52
64904;BMP280;51401;48.882;12.598;2023-05-08T01:35:29;92938.28;;;11.57
64904;BMP280;51401;48.882;12.598;2023-05-08T01:38:00;92960.00;;;11.54
64904;BMP280;51401;48.882;12.598;2023-05-08T01:40:31;92940.97;;;11.52
64904;BMP280;51401;48.882;12.598;2023-05-08T01:45:33;92958.38;;;11.51
64904;BMP280;51401;48.882;12.598;2023-05-08T01:48:09;92964.97;;;11.52
64904;BMP280;51401;48.882;12.598;2023-05-08T01:50:40;92978.88;;;11.49
64904;BMP280;51401;48.882;12.598;2023-05-08T01:53:12;92978.69;;;11.48
64904;BMP280;51401;48.882;12.598;2023-05-08T01:55:41;93016.59;;;11.50
64904;BMP280;51401;48.882;12.598;2023-05-08T01:58:08;93024.91;;;11.44
64904;BMP280;51401;48.882;12.598;2023-05-08T02:00:37;92978.03;;;11.42
64904;BMP280;51401;48.882;12.598;2023-05-08T02:03:05;92968.13;;;11.46
64904;BMP280;51401;48.882;12.598;2023-05-08T02:05:33;93059.06;;;11.48
64904;BMP280;51401;48.882;12.598;2023-05-08T02:08:01;93102.44;;;11.42
64904;BMP280;51401;48.882;12.598;2023-05-08T02:10:28;93091.13;;;11.45
64904;BMP280;51401;48.882;12.598;2023-05-08T02:12:54;93060.06;;;11.39
64904;BMP280;51401;48.882;12.598;2023-05-08T02:15:20;93049.44;;;11.43
64904;BMP280;51401;48.882;12.598;2023-05-08T02:17:47;93036.06;;;11.39
64904;BMP280;51401;48.882;12.598;2023-05-08T02:20:15;92979.97;;;11.41
64904;BMP280;51401;48.882;12.598;2023-05-08T02:22:44;92973.97;;;11.28
64904;BMP280;51401;48.882;12.598;2023-05-08T02:25:13;93006.19;;;11.32
64904;BMP280;51401;48.882;12.598;2023-05-08T02:27:44;93005.50;;;11.32
64904;BMP280;51401;48.882;12.598;2023-05-08T02:30:12;93057.56;;;11.28
64904;BMP280;51401;48.882;12.598;2023-05-08T02:32:41;93017.38;;;11.22
64904;BMP280;51401;48.882;12.598;2023-05-08T02:35:09;92919.72;;;11.17
64904;BMP280;51401;48.882;12.598;2023-05-08T02:37:36;92836.66;;;11.10
64904;BMP280;51401;48.882;12.598;2023-05-08T02:40:03;92737.78;;;11.11
64904;BMP280;51401;48.882;12.598;2023-05-08T02:42:30;92638.53;;;11.03
64904;BMP280;51401;48.882;12.598;2023-05-08T02:44:56;92525.16;;;10.96
64904;BMP280;51401;48.882;12.598;2023-05-08T02:47:24;92404.69;;;10.95
64904;BMP280;51401;48.882;12.598;2023-05-08T02:50:22;92278.72;;;10.98
64904;BMP280;51401;48.882;12.598;2023-05-08T02:52:53;92281.09;;;10.96
64904;BMP280;51401;48.882;12.598;2023-05-08T02:58:23;92157.13;;;10.92
64904;BMP280;51401;48.882;12.598;2023-05-08T03:00:57;92104.38;;;10.95
64904;BMP280;51401;48.882;12.598;2023-05-08T03:03:26;92114.47;;;10.86
64904;BMP280;51401;48.882;12.598;2023-05-08T03:05:58;91963.47;;;10.84
64904;BMP280;51401;48.882;12.598;2023-05-08T03:08:31;91868.41;;;10.84
64904;BMP280;51401;48.882;12.598;2023-05-08T03:11:01;91993.16;;;10.83
64904;BMP280;51401;48.882;12.598;2023-05-08T03:13:31;92017.66;;;10.82
64904;BMP280;51401;48.882;12.598;2023-05-08T03:16:00;92103.00;;;10.74
64904;BMP280;51401;48.882;12.598;2023-05-08T03:18:35;92106.28;;;10.75
64904;BMP280;51401;48.882;12.598;2023-05-08T03:21:04;92165.19;;;10.69
64904;BMP280;51401;48.882;12.598;2023-05-08T03:23:32;92249.63;;;10.59
64904;BMP280;51401;48.882;12.598;2023-05-08T03:25:57;92208.25;;;10.59
64904;BMP280;51401;48.882;12.598;2023-05-08T03:28:23;92244.06;;;10.55
64904;BMP280;51401;48.882;12.598;2023-05-08T03:30:49;92225.28;;;10.42
64904;BMP280;51401;48.882;12.598;2023-05-08T03:33:16;92163.50;;;10.38
64904;BMP280;51401;48.882;12.598;2023-05-08T03:35:42;92133.09;;;10.31
64904;BMP280;51401;48.882;12.598;2023-05-08T03:38:09;92073.41;;;10.29
64904;BMP280;51401;48.882;12.598;2023-05-08T03:40:35;92087.84;;;10.25
64904;BMP280;51401;48.882;12.598;2023-05-08T03:43:01;92050.06;;;10.22
64904;BMP280;51401;48.882;12.598;2023-05-08T03:45:29;92017.16;;;10.23
64904;BMP280;51401;48.882;12.598;2023-05-08T03:47:55;92021.13;;;10.24
64904;BMP280;51401;48.882;12.598;2023-05-08T03:50:22;92041.59;;;10.22
64904;BMP280;51401;48.882;12.598;2023-05-08T03:52:49;92009.13;;;10.13
64904;BMP280;51401;48.882;12.598;2023-05-08T03:55:14;91910.41;;;10.15
64904;BMP280;51401;48.882;12.598;2023-05-08T03:57:47;91933.31;;;10.11
64904;BMP280;51401;48.882;12.598;2023-05-08T04:05:38;91815.63;;;10.17
64904;BMP280;51401;48.882;12.598;2023-05-08T04:08:28;91889.56;;;10.13
64904;BMP280;51401;48.882;12.598;2023-05-08T04:11:10;91921.06;;;10.11
64904;BMP280;51401;48.882;12.598;2023-05-08T04:13:44;91910.53;;;10.09
64904;BMP280;51401;48.882;12.598;2023-05-08T04:16:20;91867.78;;;10.08
64904;BMP280;51401;48.882;12.598;2023-05-08T04:18:46;91865.00;;;10.06
64904;BMP280;51401;48.882;12.598;2023-05-08T04:21:18;91841.19;;;10.00
64904;BMP280;51401;48.882;12.598;2023-05-08T04:23:45;91792.75;;;10.01
64904;BMP280;51401;48.882;12.598;2023-05-08T04:26:13;91702.84;;;10.07
64904;BMP280;51401;48.882;12.598;2023-05-08T04:28:40;91670.09;;;10.02
64904;BMP280;51401;48.882;12.598;2023-05-08T04:31:05;91533.84;;;10.10
64904;BMP280;51401;48.882;12.598;2023-05-08T04:33:33;91597.97;;;10.11
64904;BMP280;51401;48.882;12.598;2023-05-08T04:36:00;91690.31;;;10.11
64904;BMP280;51401;48.882;12.598;2023-05-08T04:38:26;91746.34;;;10.16
64904;BMP280;51401;48.882;12.598;2023-05-08T04:40:51;91813.53;;;10.16
64904;BMP280;51401;48.882;12.598;2023-05-08T04:43:17;91844.75;;;10.18
64904;BMP280;51401;48.882;12.598;2023-05-08T04:45:42;91881.91;;;10.07
64904;BMP280;51401;48.882;12.598;2023-05-08T04:48:07;91796.84;;;10.17
64904;BMP280;51401;48.882;12.598;2023-05-08T04:50:32;91787.25;;;10.25
64904;BMP280;51401;48.882;12.598;2023-05-08T04:52:58;91803.50;;;10.32
64904;BMP280;51401;48.882;12.598;2023-05-08T04:55:23;91833.41;;;10.48
64904;BMP280;51401;48.882;12.598;2023-05-08T04:57:48;91882.81;;;10.65
64904;BMP280;51401;48.882;12.598;2023-05-08T05:00:14;92066.19;;;10.88
64904;BMP280;51401;48.882;12.598;2023-05-08T05:02:39;92308.06;;;11.00
64904;BMP280;51401;48.882;12.598;2023-05-08T05:05:05;92492.59;;;11.01
64904;BMP280;51401;48.882;12.598;2023-05-08T05:07:31;92633.50;;;11.36
64904;BMP280;51401;48.882;12.598;2023-05-08T05:09:56;92829.13;;;11.61
64904;BMP280;51401;48.882;12.598;2023-05-08T05:12:23;92950.81;;;11.90
64904;BMP280;51401;48.882;12.598;2023-05-08T05:14:48;93163.31;;;12.06
64904;BMP280;51401;48.882;12.598;2023-05-08T05:17:13;93280.44;;;12.15
64904;BMP280;51401;48.882;12.598;2023-05-08T05:19:39;93345.84;;;12.32
64904;BMP280;51401;48.882;12.598;2023-05-08T05:22:04;93445.09;;;12.14
64904;BMP280;51401;48.882;12.598;2023-05-08T05:24:33;93414.72;;;12.09
64904;BMP280;51401;48.882;12.598;2023-05-08T05:27:00;93394.06;;;12.28
64904;BMP280;51401;48.882;12.598;2023-05-08T05:29:26;93487.44;;;12.68
64904;BMP280;51401;48.882;12.598;2023-05-08T05:31:51;93621.97;;;12.74
64904;BMP280;51401;48.882;12.598;2023-05-08T05:34:16;93755.66;;;12.73
64904;BMP280;51401;48.882;12.598;2023-05-08T05:36:42;93674.16;;;12.71
64904;BMP280;51401;48.882;12.598;2023-05-08T05:39:07;93687.25;;;12.55
64904;BMP280;51401;48.882;12.598;2023-05-08T05:41:32;93685.16;;;12.48
64904;BMP280;51401;48.882;12.598;2023-05-08T05:43:58;93598.56;;;12.40
64904;BMP280;51401;48.882;12.598;2023-05-08T05:46:23;93499.97;;;12.35
64904;BMP280;51401;48.882;12.598;2023-05-08T05:48:59;93347.72;;;12.37
64904;BMP280;51401;48.882;12.598;2023-05-08T05:51:25;93400.59;;;12.58
64904;BMP280;51401;48.882;12.598;2023-05-08T05:53:51;93501.19;;;12.86
64904;BMP280;51401;48.882;12.598;2023-05-08T05:56:16;93661.91;;;13.06
64904;BMP280;51401;48.882;12.598;2023-05-08T05:58:41;93762.38;;;12.98
64904;BMP280;51401;48.882;12.598;2023-05-08T06:01:10;93855.16;;;13.19
64904;BMP280;51401;48.882;12.598;2023-05-08T06:03:35;93853.56;;;13.56
64904;BMP280;51401;48.882;12.598;2023-05-08T06:06:00;93998.63;;;13.85
64904;BMP280;51401;48.882;12.598;2023-05-08T06:08:26;94027.00;;;14.28
64904;BMP280;51401;48.882;12.598;2023-05-08T06:10:51;94185.19;;;14.27
64904;BMP280;51401;48.882;12.598;2023-05-08T06:13:16;94338.16;;;14.48
64904;BMP280;51401;48.882;12.598;2023-05-08T06:15:42;94326.03;;;14.62
64904;BMP280;51401;48.882;12.598;2023-05-08T06:18:07;94366.44;;;14.90
64904;BMP280;51401;48.882;12.598;2023-05-08T06:20:32;94507.75;;;14.72
64904;BMP280;51401;48.882;12.598;2023-05-08T06:22:58;94622.41;;;14.50
64904;BMP280;51401;48.882;12.598;2023-05-08T06:25:23;94531.91;;;15.00
64904;BMP280;51401;48.882;12.598;2023-05-08T06:27:48;94695.06;;;14.32
64904;BMP280;51401;48.882;12.598;2023-05-08T06:30:14;94601.66;;;14.09
64904;BMP280;51401;48.882;12.598;2023-05-08T06:32:39;94523.91;;;13.81
64904;BMP280;51401;48.882;12.598;2023-05-08T06:35:05;94472.38;;;13.95
64904;BMP280;51401;48.882;12.598;2023-05-08T06:37:30;94442.59;;;14.23
64904;BMP280;51401;48.882;12.598;2023-05-08T06:39:55;94480.69;;;13.99
64904;BMP280;51401;48.882;12.598;2023-05-08T06:42:20;94387.16;;;13.80
64904;BMP280;51401;48.882;12.598;2023-05-08T06:44:46;94377.81;;;13.35
64904;BMP280;51401;48.882;12.598;2023-05-08T06:47:11;94008.53;;;13.25
64904;BMP280;51401;48.882;12.598;2023-05-08T06:49:36;93904.09;;;13.66
64904;BMP280;51401;48.882;12.598;2023-05-08T06:52:02;94100.09;;;13.95
64904;BMP280;51401;48.882;12.598;2023-05-08T06:54:27;94433.91;;;13.47
64904;BMP280;51401;48.882;12.598;2023-05-08T06:56:53;94467.72;;;13.47
64904;BMP280;51401;48.882;12.598;2023-05-08T06:59:19;94428.53;;;13.56
64904;BMP280;51401;48.882;12.598;2023-05-08T07:01:44;94494.56;;;13.23
64904;BMP280;51401;48.882;12.598;2023-05-08T07:04:09;94407.53;;;13.13
64904;BMP280;51401;48.882;12.598;2023-05-08T07:06:35;94382.06;;;12.81
64904;BMP280;51401;48.882;12.598;2023-05-08T07:09:00;94309.06;;;12.84
64904;BMP280;51401;48.882;12.598;2023-05-08T07:11:25;94286.47;;;13.01
64904;BMP280;51401;48.882;12.598;2023-05-08T07:13:50;94275.88;;;13.26
64904;BMP280;51401;48.882;12.598;2023-05-08T07:16:16;94265.72;;;13.23
64904;BMP280;51401;48.882;12.598;2023-05-08T07:18:42;94296.44;;;13.24
64904;BMP280;51401;48.882;12.598;2023-05-08T07:21:08;94248.22;;;13.07
64904;BMP280;51401;48.882;12.598;2023-05-08T07:23:33;94145.84;;;13.48
64904;BMP280;51401;48.882;12.598;2023-05-08T07:25:58;94251.56;;;13.67
64904;BMP280;51401;48.882;12.598;2023-05-08T07:28:24;94291.53;;;13.53
64904;BMP280;51401;48.882;12.598;2023-05-08T07:30:49;94278.47;;;13.21
64904;BMP280;51401;48.882;12.598;2023-05-08T07:33:15;94213.19;;;12.97
64904;BMP280;51401;48.882;12.598;2023-05-08T07:35:41;94057.97;;;13.03
64904;BMP280;51401;48.882;12.598;2023-05-08T07:38:09;94108.75;;;13.26
64904;BMP280;51401;48.882;12.598;2023-05-08T07:40:35;94189.84;;;13.40
64904;BMP280;51401;48.882;12.598;2023-05-08T07:43:00;94180.81;;;13.63
64904;BMP280;51401;48.882;12.598;2023-05-08T07:45:25;94165.41;;;13.97
64904;BMP280;51401;48.882;12.598;2023-05-08T07:47:55;94274.75;;;13.97
64904;BMP280;51401;48.882;12.598;2023-05-08T07:50:21;94367.28;;;13.93
64904;BMP280;51401;48.882;12.598;2023-05-08T07:52:47;94414.38;;;14.00
64904;BMP280;51401;48.882;12.598;2023-05-08T07:55:12;94424.78;;;13.68
64904;BMP280;51401;48.882;12.598;2023-05-08T07:57:39;94189.59;;;13.60
64904;BMP280;51401;48.882;12.598;2023-05-08T08:00:05;94208.75;;;13.84
64904;BMP280;51401;48.882;12.598;2023-05-08T08:02:31;94343.81;;;13.55
64904;BMP280;51401;48.882;12.598;2023-05-08T08:04:56;94210.41;;;13.44
64904;BMP280;51401;48.882;12.598;2023-05-08T08:07:21;94098.22;;;13.90
64904;BMP280;51401;48.882;12.598;2023-05-08T08:09:47;94327.53;;;14.03
64904;BMP280;51401;48.882;12.598;2023-05-08T08:12:12;94465.31;;;14.34
64904;BMP280;51401;48.882;12.598;2023-05-08T08:14:37;94494.00;;;14.44
64904;BMP280;51401;48.882;12.598;2023-05-08T08:17:03;94546.63;;;14.81
64904;BMP280;51401;48.882;12.598;2023-05-08T08:19:28;94570.56;;;14.96
64904;BMP280;51401;48.882;12.598;2023-05-08T08:21:53;94694.56;;;14.91
64904;BMP280;51401;48.882;12.598;2023-05-08T08:24:18;94659.13;;;14.47
64904;BMP280;51401;48.882;12.598;2023-05-08T08:26:44;94425.22;;;15.07
64904;BMP280;51401;48.882;12.598;2023-05-08T08:29:09;94571.97;;;15.07
64904;BMP280;51401;48.882;12.598;2023-05-08T08:31:35;94673.03;;;15.12
64904;BMP280;51401;48.882;12.598;2023-05-08T08:34:00;94655.34;;;15.88
64904;BMP280;51401;48.882;12.598;2023-05-08T08:36:25;94863.34;;;16.51
64904;BMP280;51401;48.882;12.598;2023-05-08T08:38:50;95077.34;;;17.01
64904;BMP280;51401;48.882;12.598;2023-05-08T08:41:16;95071.25;;;17.71
64904;BMP280;51401;48.882;12.598;2023-05-08T08:43:42;95216.94;;;18.06
64904;BMP280;51401;48.882;12.598;2023-05-08T08:46:12;95129.63;;;18.22
64904;BMP280;51401;48.882;12.598;2023-05-08T08:48:43;95396.88;;;17.71
64904;BMP280;51401;48.882;12.598;2023-05-08T08:51:13;95208.47;;;17.52
64904;BMP280;51401;48.882;12.598;2023-05-08T08:53:42;95065.63;;;16.37
64904;BMP280;51401;48.882;12.598;2023-05-08T08:56:08;94925.84;;;16.70
64904;BMP280;51401;48.882;12.598;2023-05-08T08:58:37;95173.63;;;16.65
64904;BMP280;51401;48.882;12.598;2023-05-08T09:01:08;95156.06;;;16.81
64904;BMP280;51401;48.882;12.598;2023-05-08T09:03:34;95129.41;;;17.48
64904;BMP280;51401;48.882;12.598;2023-05-08T09:06:00;95119.97;;;17.95
64904;BMP280;51401;48.882;12.598;2023-05-08T09:08:26;95252.50;;;17.37
64904;BMP280;51401;48.882;12.598;2023-05-08T09:10:53;95200.59;;;17.46
64904;BMP280;51401;48.882;12.598;2023-05-08T09:13:20;95317.53;;;17.65
64904;BMP280;51401;48.882;12.598;2023-05-08T09:15:45;95344.94;;;17.75
64904;BMP280;51401;48.882;12.598;2023-05-08T09:18:10;95260.34;;;17.80
64904;BMP280;51401;48.882;12.598;2023-05-08T09:20:36;95350.41;;;18.04
64904;BMP280;51401;48.882;12.598;2023-05-08T09:23:04;95424.94;;;18.84
64904;BMP280;51401;48.882;12.598;2023-05-08T09:25:47;95626.63;;;18.96
64904;BMP280;51401;48.882;12.598;2023-05-08T09:28:16;96113.63;;;19.20
64904;BMP280;51401;48.882;12.598;2023-05-08T09:30:48;96124.22;;;18.45
64904;BMP280;51401;48.882;12.598;2023-05-08T09:33:16;96189.53;;;18.43
64904;BMP280;51401;48.882;12.598;2023-05-08T09:35:41;96215.59;;;18.47
64904;BMP280;51401;48.882;12.598;2023-05-08T09:38:06;96135.72;;;18.28
64904;BMP280;51401;48.882;12.598;2023-05-08T09:40:32;96201.88;;;18.18
64904;BMP280;51401;48.882;12.598;2023-05-08T09:43:10;96173.41;;;17.43
64904;BMP280;51401;48.882;12.598;2023-05-08T09:45:36;96158.59;;;17.40
64904;BMP280;51401;48.882;12.598;2023-05-08T09:48:03;96290.06;;;17.25
64904;BMP280;51401;48.882;12.598;2023-05-08T09:50:28;96250.41;;;17.46
64904;BMP280;51401;48.882;12.598;2023-05-08T09:52:53;96316.31;;;18.15
64904;BMP280;51401;48.882;12.598;2023-05-08T09:55:19;96399.84;;;18.65
64904;BMP280;51401;48.882;12.598;2023-05-08T09:58:10;96529.47;;;18.53
64904;BMP280;51401;48.882;12.598;2023-05-08T10:00:37;96535.50;;;18.31
64904;BMP280;51401;48.882;12.598;2023-05-08T10:03:03;96582.22;;;18.04
64904;BMP280;51401;48.882;12.598;2023-05-08T10:05:31;96418.41;;;17.62
64904;BMP280;51401;48.882;12.598;2023-05-08T10:08:22;96543.22;;;18.48
64904;BMP280;51401;48.882;12.598;2023-05-08T10:10:48;96432.72;;;18.80
64904;BMP280;51401;48.882;12.598;2023-05-08T10:13:14;96660.66;;;18.76
64904;BMP280;51401;48.882;12.598;2023-05-08T10:15:41;96563.66;;;18.16
64904;BMP280;51401;48.882;12.598;2023-05-08T10:18:07;96589.88;;;18.30
64904;BMP280;51401;48.882;12.598;2023-05-08T10:20:35;96686.84;;;18.99
64904;BMP280;51401;48.882;12.598;2023-05-08T10:23:03;96713.75;;;19.23
64904;BMP280;51401;48.882;12.598;2023-05-08T10:25:32;96644.22;;;18.53
64904;BMP280;51401;48.882;12.598;2023-05-08T10:28:09;96622.50;;;18.52
64904;BMP280;51401;48.882;12.598;2023-05-08T10:30:38;96736.03;;;19.13
64904;BMP280;51401;48.882;12.598;2023-05-08T10:33:08;96928.13;;;19.90
64904;BMP280;51401;48.882;12.598;2023-05-08T10:35:36;96996.03;;;20.14
64904;BMP280;51401;48.882;12.598;2023-05-08T10:38:02;97442.00;;;20.40
64904;BMP280;51401;48.882;12.598;2023-05-08T10:40:28;97877.06;;;20.95
64904;BMP280;51401;48.882;12.598;2023-05-08T10:42:54;98088.69;;;20.35
64904;BMP280;51401;48.882;12.598;2023-05-08T10:45:20;98110.84;;;19.92
64904;BMP280;51401;48.882;12.598;2023-05-08T10:48:10;98072.97;;;19.19
64904;BMP280;51401;48.882;12.598;2023-05-08T10:50:43;98106.44;;;20.23
64904;BMP280;51401;48.882;12.598;2023-05-08T10:53:28;98103.25;;;20.70
64904;BMP280;51401;48.882;12.598;2023-05-08T10:55:55;98077.13;;;19.99
64904;BMP280;51401;48.882;12.598;2023-05-08T10:58:30;98075.91;;;20.13
64904;BMP280;51401;48.882;12.598;2023-05-08T11:03:25;98015.72;;;19.48
64904;BMP280;51401;48.882;12.598;2023-05-08T11:05:52;97939.69;;;19.62
64904;BMP280;51401;48.882;12.598;2023-05-08T11:10:51;98037.59;;;19.91
64904;BMP280;51401;48.882;12.598;2023-05-08T11:13:18;98053.38;;;20.54
64904;BMP280;51401;48.882;12.598;2023-05-08T11:15:49;98076.84;;;20.82
64904;BMP280;51401;48.882;12.598;2023-05-08T11:18:16;98051.09;;;20.35
64904;BMP280;51401;48.882;12.598;2023-05-08T11:20:57;98062.28;;;20.77
64904;BMP280;51401;48.882;12.598;2023-05-08T11:23:30;98116.69;;;20.93
64904;BMP280;51401;48.882;12.598;2023-05-08T11:26:13;98117.06;;;21.04
64904;BMP280;51401;48.882;12.598;2023-05-08T11:28:57;98099.56;;;20.67
64904;BMP280;51401;48.882;12.598;2023-05-08T11:31:23;98095.78;;;20.68
64904;BMP280;51401;48.882;12.598;2023-05-08T11:33:48;98121.66;;;20.91
64904;BMP280;51401;48.882;12.598;2023-05-08T11:36:18;98114.75;;;20.84
64904;BMP280;51401;48.882;12.598;2023-05-08T11:39:06;98110.47;;;20.36
64904;BMP280;51401;48.882;12.598;2023-05-08T11:41:39;98082.03;;;19.89
64904;BMP280;51401;48.882;12.598;2023-05-08T11:44:18;98064.53;;;19.95
64904;BMP280;51401;48.882;12.598;2023-05-08T11:46:54;98070.41;;;19.98
64904;BMP280;51401;48.882;12.598;2023-05-08T11:49:25;98076.34;;;19.90
64904;BMP280;51401;48.882;12.598;2023-05-08T11:51:52;98044.09;;;19.65
64904;BMP280;51401;48.882;12.598;2023-05-08T11:54:22;98009.22;;;20.16
64904;BMP280;51401;48.882;12.598;2023-05-08T11:56:49;98054.66;;;20.07
64904;BMP280;51401;48.882;12.598;2023-05-08T11:59:15;98008.78;;;19.75
64904;BMP280;51401;48.882;12.598;2023-05-08T12:01:41;98048.97;;;19.75
64904;BMP280;51401;48.882;12.598;2023-05-08T12:04:09;98059.09;;;19.77
64904;BMP280;51401;48.882;12.598;2023-05-08T12:06:35;97996.75;;;19.86
64904;BMP280;51401;48.882;12.598;2023-05-08T12:09:14;98040.97;;;19.79
64904;BMP280;51401;48.882;12.598;2023-05-08T12:11:41;97954.22;;;19.21
64904;BMP280;51401;48.882;12.598;2023-05-08T12:14:08;97896.78;;;18.86
64904;BMP280;51401;48.882;12.598;2023-05-08T12:16:35;97772.16;;;19.59
64904;BMP280;51401;48.882;12.598;2023-05-08T12:19:01;97924.38;;;19.48
64904;BMP280;51401;48.882;12.598;2023-05-08T12:21:26;97943.16;;;19.59
64904;BMP280;51401;48.882;12.598;2023-05-08T12:23:53;98026.94;;;19.94
64904;BMP280;51401;48.882;12.598;2023-05-08T12:26:18;97984.81;;;19.73
64904;BMP280;51401;48.882;12.598;2023-05-08T12:28:44;98030.13;;;19.44
64904;BMP280;51401;48.882;12.598;2023-05-08T12:31:10;98027.56;;;19.52
64904;BMP280;51401;48.882;12.598;2023-05-08T12:33:36;98064.53;;;19.49
64904;BMP280;51401;48.882;12.598;2023-05-08T12:36:03;97938.94;;;18.58
64904;BMP280;51401;48.882;12.598;2023-05-08T12:38:29;97894.16;;;19.32
64904;BMP280;51401;48.882;12.598;2023-05-08T12:40:55;97860.13;;;19.16
64904;BMP280;51401;48.882;12.598;2023-05-08T12:43:22;97841.22;;;19.09
64904;BMP280;51401;48.882;12.598;2023-05-08T12:45:54;97913.41;;;19.17
64904;BMP280;51401;48.882;12.598;2023-05-08T12:48:20;97872.69;;;19.21
64904;BMP280;51401;48.882;12.598;2023-05-08T12:50:45;97977.47;;;19.22
64904;BMP280;51401;48.882;12.598;2023-05-08T12:53:18;97959.16;;;19.19
64904;BMP280;51401;48.882;12.598;2023-05-08T12:55:52;98013.63;;;19.31
64904;BMP280;51401;48.882;12.598;2023-05-08T12:58:18;98007.13;;;19.35
64904;BMP280;51401;48.882;12.598;2023-05-08T13:00:49;98013.63;;;19.43
64904;BMP280;51401;48.882;12.598;2023-05-08T13:03:22;97894.16;;;18.98
64904;BMP280;51401;48.882;12.598;2023-05-08T13:05:51;97987.28;;;18.97
64904;BMP280;51401;48.882;12.598;2023-05-08T13:08:17;98031.53;;;19.11
64904;BMP280;51401;48.882;12.598;2023-05-08T13:13:10;98053.19;;;19.40
64904;BMP280;51401;48.882;12.598;2023-05-08T13:15:35;98051.19;;;19.31
64904;BMP280;51401;48.882;12.598;2023-05-08T13:18:00;98073.06;;;19.41
64904;BMP280;51401;48.882;12.598;2023-05-08T13:20:26;98099.78;;;19.39
64904;BMP280;51401;48.882;12.598;2023-05-08T13:22:51;98055.22;;;19.23
64904;BMP280;51401;48.882;12.598;2023-05-08T13:25:16;98081.50;;;19.36
64904;BMP280;51401;48.882;12.598;2023-05-08T13:27:41;98089.78;;;19.59
64904;BMP280;51401;48.882;12.598;2023-05-08T13:30:07;98032.06;;;19.18
64904;BMP280;51401;48.882;12.598;2023-05-08T13:32:32;98024.78;;;19.22
64904;BMP280;51401;48.882;12.598;2023-05-08T13:34:58;98029.16;;;19.50
64904;BMP280;51401;48.882;12.598;2023-05-08T13:37:23;98046.44;;;19.26
64904;BMP280;51401;48.882;12.598;2023-05-08T13:39:51;97986.06;;;19.35
64904;BMP280;51401;48.882;12.598;2023-05-08T13:42:16;98016.38;;;19.15
64904;BMP280;51401;48.882;12.598;2023-05-08T13:44:41;97994.19;;;19.28
64904;BMP280;51401;48.882;12.598;2023-05-08T13:47:08;97971.06;;;19.23
64904;BMP280;51401;48.882;12.598;2023-05-08T13:49:33;97983.22;;;19.30
64904;BMP280;51401;48.882;12.598;2023-05-08T13:51:59;97963.03;;;19.27
64904;BMP280;51401;48.882;12.598;2023-05-08T13:54:25;97993.16;;;19.14
64904;BMP280;51401;48.882;12.598;2023-05-08T13:56:50;97963.44;;;19.38
64904;BMP280;51401;48.882;12.598;2023-05-08T13:59:15;97951.91;;;19.23
64904;BMP280;51401;48.882;12.598;2023-05-08T14:01:40;97963.03;;;19.39
64904;BMP280;51401;48.882;12.598;2023-05-08T14:04:06;97832.84;;;19.22
64904;BMP280;51401;48.882;12.598;2023-05-08T14:06:31;97878.84;;;19.60
64904;BMP280;51401;48.882;12.598;2023-05-08T14:08:56;97838.34;;;19.79
64904;BMP280;51401;48.882;12.598;2023-05-08T14:11:21;97855.88;;;20.03
64904;BMP280;51401;48.882;12.598;2023-05-08T14:13:47;97843.69;;;19.97
64904;BMP280;51401;48.882;12.598;2023-05-08T14:16:12;97834.63;;;19.68
64904;BMP280;51401;48.882;12.598;2023-05-08T14:18:40;97729.66;;;19.61
64904;BMP280;51401;48.882;12.598;2023-05-08T14:21:05;97689.88;;;19.59
64904;BMP280;51401;48.882;12.598;2023-05-08T14:23:30;97690.03;;;19.55
64904;BMP280;51401;48.882;12.598;2023-05-08T14:25:59;97694.03;;;19.39
64904;BMP280;51401;48.882;12.598;2023-05-08T14:28:24;97668.72;;;19.23
64904;BMP280;51401;48.882;12.598;2023-05-08T14:30:50;97635.16;;;19.06